Time;durP1;ratioP1;P1;durP2;ratioP2;P2;SDS_P1;SDS_P2;PMS_P1;PMS_P2;Temp;Humidity;BMP_temperature;BMP_pressure;BME280_temperature;BME280_humidity;BME280_pressure;Samples;Min_cycle;Max_cycle;Signal;HPM_P1;HPM_P2
2023/08/25 00:02:01;;;;;;;10.07;4.03;;;18.40;99.90;;;;;;5113679;28;20279;-76
2023/08/25 00:04:29;;;;;;;11.03;4.03;;;18.40;99.90;;;;;;5112301;28;20291;-76
2023/08/25 00:06:57;;;;;;;10.27;4.10;;;18.40;99.90;;;;;;5112835;28;20267;-79
2023/08/25 00:09:26;;;;;;;11.13;4.20;;;18.50;99.90;;;;;;5112624;28;20202;-79
2023/08/25 00:11:54;;;;;;;11.37;3.70;;;18.60;99.90;;;;;;5112601;28;20209;-79
2023/08/25 00:14:22;;;;;;;12.67;3.50;;;18.80;99.90;;;;;;5112312;28;20251;-78
2023/08/25 00:16:50;;;;;;;8.17;3.73;;;18.80;99.90;;;;;;5112185;28;20610;-79
2023/08/25 00:19:20;;;;;;;9.80;3.70;;;18.80;99.90;;;;;;5111788;28;20213;-79
2023/08/25 00:21:48;;;;;;;6.40;3.30;;;18.90;99.90;;;;;;5111910;28;20233;-76
2023/08/25 00:24:16;;;;;;;9.03;3.43;;;18.90;99.90;;;;;;5111975;28;20202;-79
2023/08/25 00:26:44;;;;;;;8.40;3.90;;;18.90;99.90;;;;;;5111983;28;20210;-78
2023/08/25 00:29:12;;;;;;;11.50;3.60;;;18.90;99.90;;;;;;5112025;28;20676;-77
2023/08/25 00:31:40;;;;;;;9.33;3.47;;;18.90;99.90;;;;;;5112079;28;20202;-77
2023/08/25 00:34:08;;;;;;;8.90;3.70;;;18.90;99.90;;;;;;5112040;28;20214;-78
2023/08/25 00:36:38;;;;;;;10.90;3.70;;;18.90;99.90;;;;;;5111836;28;20202;-79
2023/08/25 00:39:06;;;;;;;10.07;3.77;;;18.90;99.90;;;;;;5112156;28;20206;-78
2023/08/25 00:41:34;;;;;;;10.90;3.60;;;18.90;99.90;;;;;;5111620;28;20321;-78
2023/08/25 00:44:03;;;;;;;11.90;3.93;;;18.90;99.90;;;;;;5111916;28;20210;-79
2023/08/25 00:46:31;;;;;;;9.67;3.40;;;18.80;99.90;;;;;;5111960;28;20298;-79
2023/08/25 00:49:00;;;;;;;12.13;3.87;;;18.80;99.90;;;;;;5111995;28;20209;-78
2023/08/25 00:51:29;;;;;;;11.50;3.50;;;18.90;99.90;;;;;;5115154;28;20213;-80
2023/08/25 00:53:58;;;;;;;14.43;3.70;;;18.90;99.90;;;;;;5115415;28;20206;-78
2023/08/25 00:56:26;;;;;;;11.60;3.50;;;18.90;99.90;;;;;;5115380;28;20210;-78
2023/08/25 00:58:54;;;;;;;8.50;3.80;;;18.90;99.90;;;;;;5115763;28;20210;-76
2023/08/25 01:01:23;;;;;;;9.97;3.97;;;18.90;99.90;;;;;;5115171;28;20301;-79
2023/08/25 01:03:52;;;;;;;11.87;3.87;;;18.90;99.90;;;;;;5115179;28;20363;-79
2023/08/25 01:06:20;;;;;;;7.60;3.40;;;18.90;99.90;;;;;;5115188;28;20661;-79
2023/08/25 01:08:49;;;;;;;9.47;3.50;;;18.90;99.90;;;;;;5115317;28;20286;-78
2023/08/25 01:11:30;;;;;;;9.67;3.60;;;18.90;99.90;;;;;;5115525;28;20250;-78
2023/08/25 01:14:06;;;;;;;13.00;3.70;;;18.90;99.90;;;;;;5114943;28;20733;-81
2023/08/25 01:16:38;;;;;;;10.20;3.37;;;18.90;99.90;;;;;;5115130;28;20664;-79
2023/08/25 01:19:21;;;;;;;9.87;3.53;;;18.90;99.90;;;;;;5115259;28;20218;-78
2023/08/25 01:21:58;;;;;;;7.63;3.30;;;18.90;99.90;;;;;;5115050;28;20675;-75
2023/08/25 01:24:30;;;;;;;9.17;3.83;;;18.90;99.90;;;;;;5113590;28;20206;-77
2023/08/25 01:27:00;;;;;;;10.27;3.57;;;18.90;99.90;;;;;;5115213;28;20263;-78
2023/08/25 01:29:28;;;;;;;6.40;3.10;;;18.90;99.90;;;;;;5114996;28;20243;-77
2023/08/25 01:31:57;;;;;;;10.50;3.90;;;18.90;99.90;;;;;;5114587;28;20214;-77
2023/08/25 01:34:25;;;;;;;7.73;3.20;;;18.90;99.90;;;;;;5114430;28;20202;-77
2023/08/25 01:37:03;;;;;;;11.67;3.40;;;18.80;99.90;;;;;;5114902;28;20214;-78
2023/08/25 01:39:34;;;;;;;8.97;3.40;;;18.80;99.90;;;;;;5114549;28;20206;-78
2023/08/25 01:42:06;;;;;;;9.40;3.40;;;18.80;99.90;;;;;;5114658;28;20249;-76
2023/08/25 01:44:36;;;;;;;8.27;3.10;;;18.80;99.90;;;;;;5114568;28;20246;-77
2023/08/25 01:47:07;;;;;;;11.70;3.23;;;18.90;99.90;;;;;;5114389;28;20267;-77
2023/08/25 01:49:38;;;;;;;9.77;3.37;;;18.90;99.90;;;;;;5114571;28;20202;-76
2023/08/25 01:52:07;;;;;;;7.50;3.30;;;18.90;99.90;;;;;;5113495;28;20210;-76
2023/08/25 01:54:37;;;;;;;9.23;3.40;;;18.80;99.90;;;;;;5110926;28;20202;-77
2023/08/25 01:57:06;;;;;;;7.40;3.27;;;18.90;99.90;;;;;;5113564;28;20332;-78
2023/08/25 01:59:35;;;;;;;8.03;3.00;;;18.90;99.90;;;;;;5112967;28;20202;-75
2023/08/25 02:02:03;;;;;;;7.33;2.73;;;18.90;99.90;;;;;;5113774;28;20233;-76
2023/08/25 02:04:31;;;;;;;8.07;2.70;;;18.90;99.90;;;;;;5114102;28;20210;-76
2023/08/25 02:07:00;;;;;;;8.63;2.83;;;18.90;99.90;;;;;;5114453;28;20209;-76
2023/08/25 02:09:28;;;;;;;8.80;2.80;;;19.10;99.90;;;;;;5114380;28;20210;-76
2023/08/25 02:11:56;;;;;;;7.87;2.80;;;19.30;99.90;;;;;;5113824;28;20255;-75
2023/08/25 02:14:26;;;;;;;7.27;2.80;;;19.40;99.90;;;;;;5114071;28;20239;-77
2023/08/25 02:16:54;;;;;;;8.17;2.90;;;19.40;99.90;;;;;;5114032;27;20255;-75
2023/08/25 02:19:23;;;;;;;4.93;2.50;;;19.40;99.90;;;;;;5114074;28;20242;-74
2023/08/25 02:21:51;;;;;;;6.83;2.30;;;19.40;99.90;;;;;;5113800;28;20230;-76
2023/08/25 02:24:19;;;;;;;8.63;3.00;;;19.50;99.90;;;;;;5113785;28;20206;-76
2023/08/25 02:26:49;;;;;;;6.87;2.60;;;19.50;99.90;;;;;;5114235;28;20287;-73
2023/08/25 02:29:17;;;;;;;10.27;2.53;;;19.60;99.90;;;;;;5114273;28;20260;-73
2023/08/25 02:31:46;;;;;;;4.60;2.50;;;19.60;99.90;;;;;;5113567;28;20230;-77
2023/08/25 02:34:15;;;;;;;6.77;2.70;;;19.50;99.90;;;;;;5093510;28;20232;-78
2023/08/25 02:36:46;;;;;;;6.83;2.50;;;19.60;99.90;;;;;;5092968;28;20222;-74
2023/08/25 02:39:15;;;;;;;6.57;2.53;;;19.60;99.90;;;;;;5093100;28;20214;-77
2023/08/25 02:41:43;;;;;;;8.17;2.50;;;19.50;99.90;;;;;;5093932;28;20222;-77
2023/08/25 02:44:11;;;;;;;8.57;2.60;;;19.50;99.90;;;;;;5093483;28;20210;-74
2023/08/25 02:46:42;;;;;;;7.00;2.67;;;19.50;99.90;;;;;;5100365;28;20256;-76
2023/08/25 02:49:11;;;;;;;7.23;2.47;;;19.50;99.90;;;;;;5110664;28;20209;-78
2023/08/25 02:51:39;;;;;;;6.90;2.80;;;19.50;99.90;;;;;;5113354;28;20202;-76
2023/08/25 02:54:08;;;;;;;6.20;2.20;;;19.60;99.90;;;;;;5113391;28;20209;-77
2023/08/25 02:56:36;;;;;;;6.33;2.70;;;19.60;99.90;;;;;;5113190;28;20258;-76
2023/08/25 02:59:04;;;;;;;7.03;2.80;;;19.80;99.90;;;;;;5104686;28;20207;-80
2023/08/25 03:01:33;;;;;;;4.27;2.10;;;19.80;99.90;;;;;;5092746;28;20223;-74
2023/08/25 03:04:01;;;;;;;6.37;2.50;;;19.70;99.90;;;;;;5092588;28;20303;-75
2023/08/25 03:06:31;;;;;;;6.00;2.70;;;19.80;99.90;;;;;;5093792;28;20210;-76
2023/08/25 03:08:59;;;;;;;6.73;2.50;;;19.70;99.90;;;;;;5113108;28;20233;-77
2023/08/25 03:11:27;;;;;;;8.13;2.50;;;19.80;99.90;;;;;;5112930;28;20202;-77
2023/08/25 03:13:56;;;;;;;5.33;2.40;;;19.70;99.90;;;;;;5112232;28;20202;-74
2023/08/25 03:16:24;;;;;;;6.30;2.70;;;19.70;99.90;;;;;;5113032;28;20202;-75
2023/08/25 03:18:52;;;;;;;5.93;2.17;;;19.70;99.90;;;;;;5112749;27;20230;-74
2023/08/25 03:21:20;;;;;;;5.70;2.33;;;19.70;99.90;;;;;;5112607;28;20234;-77
2023/08/25 03:23:49;;;;;;;6.30;2.60;;;19.70;99.90;;;;;;5111940;28;20636;-77
2023/08/25 03:26:17;;;;;;;6.37;2.33;;;19.60;99.90;;;;;;5112429;28;20267;-75
2023/08/25 03:28:45;;;;;;;7.33;2.50;;;19.60;99.90;;;;;;5112674;28;20210;-75
2023/08/25 03:31:14;;;;;;;6.70;2.40;;;19.50;99.90;;;;;;5112169;28;20289;-77
2023/08/25 03:33:42;;;;;;;5.03;2.20;;;19.50;99.90;;;;;;5112282;28;20210;-73
2023/08/25 03:36:10;;;;;;;4.67;2.40;;;19.40;99.90;;;;;;5112253;28;20209;-78
2023/08/25 03:38:38;;;;;;;5.77;2.13;;;19.40;99.90;;;;;;5112473;28;20210;-77
2023/08/25 03:41:08;;;;;;;4.50;2.37;;;19.40;99.90;;;;;;5112321;28;20211;-74
2023/08/25 03:43:36;;;;;;;6.57;2.27;;;19.40;99.90;;;;;;5112030;28;20639;-76
2023/08/25 03:46:04;;;;;;;5.00;2.10;;;19.40;99.90;;;;;;5112379;28;20317;-76
2023/08/25 03:48:32;;;;;;;6.57;2.37;;;19.40;99.90;;;;;;5112493;28;20190;-77
2023/08/25 03:51:01;;;;;;;4.77;2.17;;;19.40;99.90;;;;;;5112126;28;20230;-73
2023/08/25 03:53:29;;;;;;;4.23;2.20;;;19.30;99.90;;;;;;5112050;28;20210;-76
2023/08/25 03:55:57;;;;;;;6.77;2.47;;;19.30;99.90;;;;;;5111994;28;20718;-76
2023/08/25 03:58:27;;;;;;;3.97;2.07;;;19.30;99.90;;;;;;5112215;28;20289;-73
2023/08/25 04:00:55;;;;;;;7.20;2.20;;;19.20;99.90;;;;;;5112177;28;20205;-75
2023/08/25 04:03:24;;;;;;;3.63;2.27;;;19.20;99.90;;;;;;5111671;28;20240;-77
2023/08/25 04:05:52;;;;;;;6.13;2.20;;;19.20;99.90;;;;;;5112125;28;20208;-77
2023/08/25 04:08:20;;;;;;;4.40;2.20;;;19.20;99.90;;;;;;5112466;28;20213;-75
2023/08/25 04:10:48;;;;;;;6.93;2.13;;;19.30;99.90;;;;;;5111991;28;20216;-77
2023/08/25 04:13:17;;;;;;;4.03;1.90;;;19.30;99.90;;;;;;5111941;28;20255;-76
2023/08/25 04:15:54;;;;;;;5.93;2.00;;;19.30;99.90;;;;;;5111840;28;20206;-76
2023/08/25 04:18:22;;;;;;;3.40;2.00;;;19.30;99.90;;;;;;5112126;28;20278;-78
2023/08/25 04:20:50;;;;;;;5.60;2.43;;;19.30;99.90;;;;;;5111606;28;20426;-77
2023/08/25 04:23:18;;;;;;;6.13;2.07;;;19.40;99.90;;;;;;5111590;28;20717;-76
2023/08/25 04:25:46;;;;;;;5.67;2.17;;;19.60;99.90;;;;;;5115263;28;20255;-78
2023/08/25 04:28:14;;;;;;;5.47;2.20;;;19.80;99.90;;;;;;5115765;28;20648;-76
2023/08/25 04:30:42;;;;;;;6.77;2.10;;;19.80;99.90;;;;;;5115640;28;20255;-78
2023/08/25 04:33:12;;;;;;;4.17;2.03;;;19.90;99.90;;;;;;5115937;28;20605;-78
2023/08/25 04:35:46;;;;;;;1.93;1.70;;;19.90;99.90;;;;;;5115676;28;20271;-75
2023/08/25 04:38:15;;;;;;;5.40;1.80;;;20.00;99.90;;;;;;5116206;28;20569;-78
2023/08/25 04:40:43;;;;;;;4.47;1.73;;;20.10;99.90;;;;;;5115840;28;20274;-76
2023/08/25 04:43:11;;;;;;;3.17;1.60;;;20.20;99.90;;;;;;5115925;28;20232;-79
2023/08/25 04:45:40;;;;;;;3.57;1.70;;;20.30;99.90;;;;;;5115667;28;20226;-76
2023/08/25 04:48:08;;;;;;;4.17;1.90;;;20.30;99.90;;;;;;5115800;28;20217;-78
2023/08/25 04:50:38;;;;;;;3.50;1.70;;;20.40;99.90;;;;;;5115599;28;20210;-76
2023/08/25 04:53:07;;;;;;;3.90;2.00;;;20.50;99.90;;;;;;5116235;28;20203;-77
2023/08/25 04:55:35;;;;;;;3.77;1.60;;;20.60;99.90;;;;;;5115424;28;20616;-79
2023/08/25 04:58:04;;;;;;;4.67;1.93;;;20.70;99.90;;;;;;5101190;28;20199;-74
2023/08/25 05:00:33;;;;;;;3.30;1.50;;;20.80;99.90;;;;;;5098377;28;20207;-76
2023/08/25 05:03:01;;;;;;;2.77;1.87;;;20.90;99.90;;;;;;5098430;28;20233;-76
2023/08/25 05:05:32;;;;;;;4.27;1.80;;;21.00;99.90;;;;;;5097174;28;21745;-78
2023/08/25 05:08:02;;;;;;;4.17;1.70;;;21.00;99.90;;;;;;5110025;28;20625;-75
2023/08/25 05:10:30;;;;;;;3.60;1.60;;;21.00;99.90;;;;;;5095103;28;20239;-77
2023/08/25 05:12:58;;;;;;;4.57;1.77;;;21.00;99.90;;;;;;5096096;28;20257;-78
2023/08/25 05:15:27;;;;;;;2.23;1.60;;;21.10;99.90;;;;;;5103697;28;20252;-78
2023/08/25 05:17:55;;;;;;;6.40;1.87;;;21.10;99.90;;;;;;5104433;28;20198;-76
2023/08/25 05:20:24;;;;;;;3.97;1.90;;;21.10;99.90;;;;;;5114287;28;20636;-77
2023/08/25 05:22:52;;;;;;;5.30;2.00;;;21.10;99.90;;;;;;5108528;28;20226;-77
2023/08/25 05:25:40;;;;;;;3.40;1.80;;;21.10;99.90;;;;;;5106717;28;20230;-76
2023/08/25 05:28:26;;;;;;;2.47;1.60;;;21.20;99.90;;;;;;5099357;27;20272;-76
2023/08/25 05:30:55;;;;;;;4.37;1.70;;;21.20;99.90;;;;;;5071163;28;20667;-75
2023/08/25 05:33:23;;;;;;;2.77;1.70;;;21.20;99.90;;;;;;5068147;28;20222;-73
2023/08/25 05:35:52;;;;;;;3.10;1.70;;;21.30;99.90;;;;;;5072196;28;20290;-77
2023/08/25 05:38:20;;;;;;;2.63;1.63;;;21.30;99.90;;;;;;5074576;28;20329;-76
2023/08/25 05:41:13;;;;;;;2.47;1.77;;;21.30;99.90;;;;;;5073823;28;20206;-76
2023/08/25 05:44:06;;;;;;;3.80;1.50;;;21.30;99.90;;;;;;5072980;28;20226;-74
2023/08/25 05:46:58;;;;;;;5.73;2.00;;;21.20;99.90;;;;;;5060842;28;20266;-78
2023/08/25 05:49:51;;;;;;;2.37;1.50;;;21.20;99.90;;;;;;5069925;28;20261;-76
